sensor_id;sensor_type;location;lat;lon;timestamp;P1;durP1;ratioP1;P2;durP2;ratioP2
15331;SDS011;7766;51.534;6.722;2022-07-24T00:00:49;6.13;;;4.50;;
15331;SDS011;7766;51.534;6.722;2022-07-24T00:01:49;7.87;;;4.57;;
15331;SDS011;7766;51.534;6.722;2022-07-24T00:02:50;6.10;;;3.97;;
15331;SDS011;7766;51.534;6.722;2022-07-24T00:03:51;5.67;;;4.27;;
15331;SDS011;7766;51.534;6.722;2022-07-24T00:04:52;7.30;;;4.17;;
15331;SDS011;7766;51.534;6.722;2022-07-24T00:05:56;5.33;;;4.20;;
15331;SDS011;7766;51.534;6.722;2022-07-24T00:06:57;6.30;;;4.43;;
15331;SDS011;7766;51.534;6.722;2022-07-24T00:07:58;4.83;;;3.73;;
15331;SDS011;7766;51.534;6.722;2022-07-24T00:08:58;5.70;;;4.63;;
15331;SDS011;7766;51.534;6.722;2022-07-24T00:10:00;6.03;;;4.47;;
15331;SDS011;7766;51.534;6.722;2022-07-24T00:11:01;5.27;;;4.60;;
15331;SDS011;7766;51.534;6.722;2022-07-24T00:12:02;4.90;;;4.50;;
15331;SDS011;7766;51.534;6.722;2022-07-24T00:13:03;5.83;;;4.60;;
15331;SDS011;7766;51.534;6.722;2022-07-24T00:14:03;6.13;;;4.60;;
15331;SDS011;7766;51.534;6.722;2022-07-24T00:15:04;7.43;;;4.53;;
15331;SDS011;7766;51.534;6.722;2022-07-24T00:16:06;6.27;;;4.27;;
15331;SDS011;7766;51.534;6.722;2022-07-24T00:17:07;7.53;;;4.20;;
15331;SDS011;7766;51.534;6.722;2022-07-24T00:18:08;8.13;;;4.47;;
15331;SDS011;7766;51.534;6.722;2022-07-24T00:19:08;6.13;;;4.63;;
15331;SDS011;7766;51.534;6.722;2022-07-24T00:20:10;6.50;;;4.70;;
15331;SDS011;7766;51.534;6.722;2022-07-24T00:21:10;7.07;;;4.73;;
15331;SDS011;7766;51.534;6.722;2022-07-24T00:22:11;5.57;;;4.60;;
15331;SDS011;7766;51.534;6.722;2022-07-24T00:23:12;5.53;;;4.80;;
15331;SDS011;7766;51.534;6.722;2022-07-24T00:24:13;5.90;;;4.60;;
15331;SDS011;7766;51.534;6.722;2022-07-24T00:25:14;7.33;;;4.40;;
15331;SDS011;7766;51.534;6.722;2022-07-24T00:26:15;7.40;;;4.57;;
15331;SDS011;7766;51.534;6.722;2022-07-24T00:27:16;4.97;;;4.47;;
15331;SDS011;7766;51.534;6.722;2022-07-24T00:28:17;6.27;;;5.03;;
15331;SDS011;7766;51.534;6.722;2022-07-24T00:29:18;7.60;;;4.20;;
15331;SDS011;7766;51.534;6.722;2022-07-24T00:30:19;6.77;;;4.37;;
15331;SDS011;7766;51.534;6.722;2022-07-24T00:31:20;5.00;;;4.40;;
15331;SDS011;7766;51.534;6.722;2022-07-24T00:32:20;6.00;;;4.23;;
15331;SDS011;7766;51.534;6.722;2022-07-24T00:33:21;6.00;;;4.90;;
15331;SDS011;7766;51.534;6.722;2022-07-24T00:34:22;5.23;;;4.73;;
15331;SDS011;7766;51.534;6.722;2022-07-24T00:35:23;4.77;;;4.30;;
15331;SDS011;7766;51.534;6.722;2022-07-24T00:36:24;6.83;;;4.77;;
15331;SDS011;7766;51.534;6.722;2022-07-24T00:37:25;6.17;;;4.87;;
15331;SDS011;7766;51.534;6.722;2022-07-24T00:38:27;5.60;;;4.93;;
15331;SDS011;7766;51.534;6.722;2022-07-24T00:39:28;6.27;;;5.20;;
15331;SDS011;7766;51.534;6.722;2022-07-24T00:40:29;6.30;;;4.50;;
15331;SDS011;7766;51.534;6.722;2022-07-24T00:41:30;5.60;;;4.13;;
15331;SDS011;7766;51.534;6.722;2022-07-24T00:42:31;6.87;;;4.50;;
15331;SDS011;7766;51.534;6.722;2022-07-24T00:43:32;6.33;;;5.07;;
15331;SDS011;7766;51.534;6.722;2022-07-24T00:44:33;5.87;;;4.07;;
15331;SDS011;7766;51.534;6.722;2022-07-24T00:45:34;5.90;;;4.50;;
15331;SDS011;7766;51.534;6.722;2022-07-24T00:46:36;7.13;;;4.67;;
15331;SDS011;7766;51.534;6.722;2022-07-24T00:47:38;5.63;;;4.57;;
15331;SDS011;7766;51.534;6.722;2022-07-24T00:48:39;8.10;;;4.90;;
15331;SDS011;7766;51.534;6.722;2022-07-24T00:49:40;5.53;;;4.70;;
15331;SDS011;7766;51.534;6.722;2022-07-24T00:50:40;6.27;;;4.83;;
15331;SDS011;7766;51.534;6.722;2022-07-24T00:51:42;5.10;;;4.67;;
15331;SDS011;7766;51.534;6.722;2022-07-24T00:52:46;6.40;;;4.50;;
15331;SDS011;7766;51.534;6.722;2022-07-24T00:53:47;8.50;;;4.77;;
15331;SDS011;7766;51.534;6.722;2022-07-24T00:54:48;8.97;;;4.80;;
15331;SDS011;7766;51.534;6.722;2022-07-24T00:55:49;5.80;;;4.80;;
15331;SDS011;7766;51.534;6.722;2022-07-24T00:56:50;8.33;;;4.80;;
15331;SDS011;7766;51.534;6.722;2022-07-24T00:57:51;5.83;;;4.57;;
15331;SDS011;7766;51.534;6.722;2022-07-24T00:58:52;6.87;;;4.60;;
15331;SDS011;7766;51.534;6.722;2022-07-24T00:59:53;7.27;;;4.83;;
15331;SDS011;7766;51.534;6.722;2022-07-24T01:00:54;5.27;;;4.40;;
15331;SDS011;7766;51.534;6.722;2022-07-24T01:01:55;7.60;;;4.97;;
15331;SDS011;7766;51.534;6.722;2022-07-24T01:02:56;13.80;;;10.13;;
15331;SDS011;7766;51.534;6.722;2022-07-24T01:03:58;14.50;;;10.40;;
15331;SDS011;7766;51.534;6.722;2022-07-24T01:04:59;7.07;;;5.37;;
15331;SDS011;7766;51.534;6.722;2022-07-24T01:06:00;7.20;;;6.27;;
15331;SDS011;7766;51.534;6.722;2022-07-24T01:07:01;7.23;;;5.90;;
15331;SDS011;7766;51.534;6.722;2022-07-24T01:08:02;8.87;;;5.50;;
15331;SDS011;7766;51.534;6.722;2022-07-24T01:09:03;8.43;;;7.53;;
15331;SDS011;7766;51.534;6.722;2022-07-24T01:10:04;6.53;;;5.00;;
15331;SDS011;7766;51.534;6.722;2022-07-24T01:11:05;5.40;;;4.70;;
15331;SDS011;7766;51.534;6.722;2022-07-24T01:12:06;5.73;;;4.77;;
15331;SDS011;7766;51.534;6.722;2022-07-24T01:13:07;4.40;;;4.00;;
15331;SDS011;7766;51.534;6.722;2022-07-24T01:14:09;6.87;;;4.20;;
15331;SDS011;7766;51.534;6.722;2022-07-24T01:15:11;6.53;;;4.50;;
15331;SDS011;7766;51.534;6.722;2022-07-24T01:16:12;7.03;;;4.20;;
15331;SDS011;7766;51.534;6.722;2022-07-24T01:17:13;6.33;;;5.10;;
15331;SDS011;7766;51.534;6.722;2022-07-24T01:18:14;6.00;;;4.77;;
15331;SDS011;7766;51.534;6.722;2022-07-24T01:19:14;5.43;;;4.33;;
15331;SDS011;7766;51.534;6.722;2022-07-24T01:20:15;7.53;;;5.10;;
15331;SDS011;7766;51.534;6.722;2022-07-24T01:21:16;6.20;;;4.97;;
15331;SDS011;7766;51.534;6.722;2022-07-24T01:22:17;8.20;;;4.77;;
15331;SDS011;7766;51.534;6.722;2022-07-24T01:23:18;5.60;;;4.80;;
15331;SDS011;7766;51.534;6.722;2022-07-24T01:24:20;5.77;;;4.70;;
15331;SDS011;7766;51.534;6.722;2022-07-24T01:25:20;7.37;;;4.67;;
15331;SDS011;7766;51.534;6.722;2022-07-24T01:26:21;8.53;;;5.20;;
15331;SDS011;7766;51.534;6.722;2022-07-24T01:27:23;5.60;;;5.10;;
15331;SDS011;7766;51.534;6.722;2022-07-24T01:28:24;6.33;;;5.00;;
15331;SDS011;7766;51.534;6.722;2022-07-24T01:29:25;7.40;;;5.07;;
15331;SDS011;7766;51.534;6.722;2022-07-24T01:30:26;6.63;;;4.80;;
15331;SDS011;7766;51.534;6.722;2022-07-24T01:31:27;6.20;;;4.53;;
15331;SDS011;7766;51.534;6.722;2022-07-24T01:32:28;7.47;;;4.97;;
15331;SDS011;7766;51.534;6.722;2022-07-24T01:33:28;7.60;;;4.80;;
15331;SDS011;7766;51.534;6.722;2022-07-24T01:34:29;8.60;;;5.10;;
15331;SDS011;7766;51.534;6.722;2022-07-24T01:35:30;6.67;;;4.73;;
15331;SDS011;7766;51.534;6.722;2022-07-24T01:36:31;5.40;;;4.80;;
15331;SDS011;7766;51.534;6.722;2022-07-24T01:37:32;5.93;;;5.00;;
15331;SDS011;7766;51.534;6.722;2022-07-24T01:38:33;6.90;;;4.87;;
15331;SDS011;7766;51.534;6.722;2022-07-24T01:39:34;5.00;;;4.50;;
15331;SDS011;7766;51.534;6.722;2022-07-24T01:40:34;6.97;;;4.40;;
15331;SDS011;7766;51.534;6.722;2022-07-24T01:41:35;6.20;;;4.93;;
15331;SDS011;7766;51.534;6.722;2022-07-24T01:42:36;8.23;;;5.00;;
15331;SDS011;7766;51.534;6.722;2022-07-24T01:43:37;6.37;;;4.90;;
15331;SDS011;7766;51.534;6.722;2022-07-24T01:44:37;8.00;;;4.90;;
15331;SDS011;7766;51.534;6.722;2022-07-24T01:45:38;6.53;;;4.77;;
15331;SDS011;7766;51.534;6.722;2022-07-24T01:46:39;6.47;;;5.00;;
15331;SDS011;7766;51.534;6.722;2022-07-24T01:47:41;6.37;;;5.37;;
15331;SDS011;7766;51.534;6.722;2022-07-24T01:48:43;5.93;;;4.93;;
15331;SDS011;7766;51.534;6.722;2022-07-24T01:49:44;7.63;;;5.13;;
15331;SDS011;7766;51.534;6.722;2022-07-24T01:50:45;8.23;;;5.20;;
15331;SDS011;7766;51.534;6.722;2022-07-24T01:51:46;8.83;;;5.00;;
15331;SDS011;7766;51.534;6.722;2022-07-24T01:52:47;8.17;;;5.47;;
15331;SDS011;7766;51.534;6.722;2022-07-24T01:53:48;7.87;;;5.10;;
15331;SDS011;7766;51.534;6.722;2022-07-24T01:54:48;6.10;;;5.10;;
15331;SDS011;7766;51.534;6.722;2022-07-24T01:55:50;6.73;;;4.83;;
15331;SDS011;7766;51.534;6.722;2022-07-24T01:56:51;5.97;;;4.83;;
15331;SDS011;7766;51.534;6.722;2022-07-24T01:57:52;7.33;;;4.87;;
15331;SDS011;7766;51.534;6.722;2022-07-24T01:58:53;7.43;;;4.97;;
15331;SDS011;7766;51.534;6.722;2022-07-24T01:59:54;7.27;;;4.70;;
15331;SDS011;7766;51.534;6.722;2022-07-24T02:00:55;7.30;;;5.13;;
15331;SDS011;7766;51.534;6.722;2022-07-24T02:01:55;7.77;;;5.60;;
15331;SDS011;7766;51.534;6.722;2022-07-24T02:02:56;8.00;;;5.53;;
15331;SDS011;7766;51.534;6.722;2022-07-24T02:03:57;5.67;;;5.00;;
15331;SDS011;7766;51.534;6.722;2022-07-24T02:04:58;11.07;;;5.27;;
15331;SDS011;7766;51.534;6.722;2022-07-24T02:05:59;9.67;;;5.10;;
15331;SDS011;7766;51.534;6.722;2022-07-24T02:07:00;6.43;;;5.30;;
15331;SDS011;7766;51.534;6.722;2022-07-24T02:08:01;7.53;;;5.40;;
15331;SDS011;7766;51.534;6.722;2022-07-24T02:09:02;7.13;;;5.50;;
15331;SDS011;7766;51.534;6.722;2022-07-24T02:10:03;7.60;;;5.43;;
15331;SDS011;7766;51.534;6.722;2022-07-24T02:11:04;8.57;;;5.20;;
15331;SDS011;7766;51.534;6.722;2022-07-24T02:12:05;7.63;;;5.03;;
15331;SDS011;7766;51.534;6.722;2022-07-24T02:13:06;6.60;;;5.40;;
15331;SDS011;7766;51.534;6.722;2022-07-24T02:14:07;6.43;;;5.00;;
15331;SDS011;7766;51.534;6.722;2022-07-24T02:15:08;7.40;;;5.07;;
15331;SDS011;7766;51.534;6.722;2022-07-24T02:16:09;7.77;;;4.93;;
15331;SDS011;7766;51.534;6.722;2022-07-24T02:17:10;6.93;;;5.17;;
15331;SDS011;7766;51.534;6.722;2022-07-24T02:18:11;8.53;;;5.97;;
15331;SDS011;7766;51.534;6.722;2022-07-24T02:19:12;7.10;;;5.27;;
15331;SDS011;7766;51.534;6.722;2022-07-24T02:20:14;6.07;;;4.57;;
15331;SDS011;7766;51.534;6.722;2022-07-24T02:21:14;7.20;;;4.90;;
15331;SDS011;7766;51.534;6.722;2022-07-24T02:22:15;6.20;;;4.70;;
15331;SDS011;7766;51.534;6.722;2022-07-24T02:23:16;8.07;;;5.47;;
15331;SDS011;7766;51.534;6.722;2022-07-24T02:24:17;7.77;;;5.27;;
15331;SDS011;7766;51.534;6.722;2022-07-24T02:25:19;7.23;;;5.13;;
15331;SDS011;7766;51.534;6.722;2022-07-24T02:26:19;6.83;;;5.10;;
15331;SDS011;7766;51.534;6.722;2022-07-24T02:27:20;12.63;;;5.50;;
15331;SDS011;7766;51.534;6.722;2022-07-24T02:28:21;5.73;;;4.50;;
15331;SDS011;7766;51.534;6.722;2022-07-24T02:29:22;7.50;;;4.90;;
15331;SDS011;7766;51.534;6.722;2022-07-24T02:30:23;6.50;;;5.23;;
15331;SDS011;7766;51.534;6.722;2022-07-24T02:31:24;7.60;;;5.30;;
15331;SDS011;7766;51.534;6.722;2022-07-24T02:32:25;6.90;;;4.77;;
15331;SDS011;7766;51.534;6.722;2022-07-24T02:33:26;7.30;;;5.57;;
15331;SDS011;7766;51.534;6.722;2022-07-24T02:34:27;6.33;;;4.50;;
15331;SDS011;7766;51.534;6.722;2022-07-24T02:35:28;5.53;;;4.90;;
15331;SDS011;7766;51.534;6.722;2022-07-24T02:36:28;6.07;;;5.10;;
15331;SDS011;7766;51.534;6.722;2022-07-24T02:37:29;9.57;;;5.17;;
15331;SDS011;7766;51.534;6.722;2022-07-24T02:38:30;7.07;;;4.90;;
15331;SDS011;7766;51.534;6.722;2022-07-24T02:39:31;6.50;;;5.20;;
15331;SDS011;7766;51.534;6.722;2022-07-24T02:40:32;7.57;;;5.20;;
15331;SDS011;7766;51.534;6.722;2022-07-24T02:41:33;8.90;;;5.30;;
15331;SDS011;7766;51.534;6.722;2022-07-24T02:42:34;9.23;;;5.00;;
15331;SDS011;7766;51.534;6.722;2022-07-24T02:43:35;6.47;;;4.87;;
15331;SDS011;7766;51.534;6.722;2022-07-24T02:44:36;7.73;;;4.63;;
15331;SDS011;7766;51.534;6.722;2022-07-24T02:45:37;8.63;;;5.40;;
15331;SDS011;7766;51.534;6.722;2022-07-24T02:46:38;6.93;;;5.20;;
15331;SDS011;7766;51.534;6.722;2022-07-24T02:47:52;5.50;;;4.83;;
15331;SDS011;7766;51.534;6.722;2022-07-24T02:48:54;7.27;;;5.10;;
15331;SDS011;7766;51.534;6.722;2022-07-24T02:49:55;7.07;;;4.70;;
15331;SDS011;7766;51.534;6.722;2022-07-24T02:50:55;6.17;;;5.43;;
15331;SDS011;7766;51.534;6.722;2022-07-24T02:51:56;7.97;;;5.47;;
15331;SDS011;7766;51.534;6.722;2022-07-24T02:52:58;8.77;;;5.10;;
15331;SDS011;7766;51.534;6.722;2022-07-24T02:53:58;8.97;;;6.07;;
15331;SDS011;7766;51.534;6.722;2022-07-24T02:54:59;8.20;;;5.20;;
15331;SDS011;7766;51.534;6.722;2022-07-24T02:56:00;6.57;;;5.27;;
15331;SDS011;7766;51.534;6.722;2022-07-24T02:57:00;7.37;;;4.97;;
15331;SDS011;7766;51.534;6.722;2022-07-24T02:58:01;5.43;;;4.93;;
15331;SDS011;7766;51.534;6.722;2022-07-24T02:59:03;6.90;;;4.90;;
15331;SDS011;7766;51.534;6.722;2022-07-24T03:00:04;7.33;;;5.13;;
15331;SDS011;7766;51.534;6.722;2022-07-24T03:01:07;6.47;;;4.77;;
15331;SDS011;7766;51.534;6.722;2022-07-24T03:02:08;9.33;;;5.03;;
15331;SDS011;7766;51.534;6.722;2022-07-24T03:03:09;9.40;;;5.27;;
15331;SDS011;7766;51.534;6.722;2022-07-24T03:04:10;5.83;;;5.10;;
15331;SDS011;7766;51.534;6.722;2022-07-24T03:05:11;7.07;;;4.77;;
15331;SDS011;7766;51.534;6.722;2022-07-24T03:06:12;6.37;;;5.37;;
15331;SDS011;7766;51.534;6.722;2022-07-24T03:07:13;7.47;;;5.37;;
15331;SDS011;7766;51.534;6.722;2022-07-24T03:08:14;8.83;;;5.60;;
15331;SDS011;7766;51.534;6.722;2022-07-24T03:09:15;7.23;;;5.57;;
15331;SDS011;7766;51.534;6.722;2022-07-24T03:10:16;7.00;;;5.40;;
15331;SDS011;7766;51.534;6.722;2022-07-24T03:11:17;6.27;;;5.23;;
15331;SDS011;7766;51.534;6.722;2022-07-24T03:12:17;6.90;;;5.00;;
15331;SDS011;7766;51.534;6.722;2022-07-24T03:13:18;5.50;;;5.00;;
15331;SDS011;7766;51.534;6.722;2022-07-24T03:14:19;6.53;;;5.37;;
15331;SDS011;7766;51.534;6.722;2022-07-24T03:15:19;8.00;;;5.33;;
15331;SDS011;7766;51.534;6.722;2022-07-24T03:16:20;7.50;;;5.00;;
15331;SDS011;7766;51.534;6.722;2022-07-24T03:17:21;8.80;;;5.63;;
15331;SDS011;7766;51.534;6.722;2022-07-24T03:18:22;8.10;;;5.20;;
15331;SDS011;7766;51.534;6.722;2022-07-24T03:19:23;6.00;;;5.27;;
15331;SDS011;7766;51.534;6.722;2022-07-24T03:20:25;6.17;;;5.00;;
15331;SDS011;7766;51.534;6.722;2022-07-24T03:21:26;7.60;;;5.00;;
15331;SDS011;7766;51.534;6.722;2022-07-24T03:22:27;7.53;;;5.50;;
15331;SDS011;7766;51.534;6.722;2022-07-24T03:23:28;7.30;;;5.10;;
15331;SDS011;7766;51.534;6.722;2022-07-24T03:24:29;8.70;;;5.30;;
15331;SDS011;7766;51.534;6.722;2022-07-24T03:25:30;6.00;;;4.93;;
15331;SDS011;7766;51.534;6.722;2022-07-24T03:26:31;6.80;;;4.97;;
15331;SDS011;7766;51.534;6.722;2022-07-24T03:27:31;7.17;;;5.20;;
15331;SDS011;7766;51.534;6.722;2022-07-24T03:28:32;8.20;;;5.43;;
15331;SDS011;7766;51.534;6.722;2022-07-24T03:29:32;5.60;;;4.43;;
15331;SDS011;7766;51.534;6.722;2022-07-24T03:30:33;5.73;;;5.07;;
15331;SDS011;7766;51.534;6.722;2022-07-24T03:31:34;7.13;;;4.97;;
15331;SDS011;7766;51.534;6.722;2022-07-24T03:32:34;5.70;;;4.87;;
15331;SDS011;7766;51.534;6.722;2022-07-24T03:33:35;5.03;;;4.63;;
15331;SDS011;7766;51.534;6.722;2022-07-24T03:34:36;8.03;;;5.80;;
15331;SDS011;7766;51.534;6.722;2022-07-24T03:35:37;6.90;;;5.43;;
15331;SDS011;7766;51.534;6.722;2022-07-24T03:36:38;6.87;;;4.80;;
15331;SDS011;7766;51.534;6.722;2022-07-24T03:37:39;7.50;;;5.17;;
15331;SDS011;7766;51.534;6.722;2022-07-24T03:38:40;8.27;;;5.47;;
15331;SDS011;7766;51.534;6.722;2022-07-24T03:39:40;9.00;;;5.23;;
15331;SDS011;7766;51.534;6.722;2022-07-24T03:40:42;6.97;;;4.80;;
15331;SDS011;7766;51.534;6.722;2022-07-24T03:41:43;11.43;;;5.20;;
15331;SDS011;7766;51.534;6.722;2022-07-24T03:42:44;7.80;;;5.10;;
15331;SDS011;7766;51.534;6.722;2022-07-24T03:43:45;7.43;;;5.50;;
15331;SDS011;7766;51.534;6.722;2022-07-24T03:44:46;8.77;;;5.87;;
15331;SDS011;7766;51.534;6.722;2022-07-24T03:45:47;8.17;;;5.20;;
15331;SDS011;7766;51.534;6.722;2022-07-24T03:46:48;8.67;;;5.53;;
15331;SDS011;7766;51.534;6.722;2022-07-24T03:47:48;7.87;;;5.37;;
15331;SDS011;7766;51.534;6.722;2022-07-24T03:48:49;7.87;;;5.63;;
15331;SDS011;7766;51.534;6.722;2022-07-24T03:49:50;5.10;;;4.37;;
15331;SDS011;7766;51.534;6.722;2022-07-24T03:50:51;6.70;;;5.00;;
15331;SDS011;7766;51.534;6.722;2022-07-24T03:51:52;5.70;;;5.20;;
15331;SDS011;7766;51.534;6.722;2022-07-24T03:52:53;9.03;;;5.27;;
15331;SDS011;7766;51.534;6.722;2022-07-24T03:53:54;7.57;;;5.33;;
15331;SDS011;7766;51.534;6.722;2022-07-24T03:54:54;6.10;;;5.50;;
15331;SDS011;7766;51.534;6.722;2022-07-24T03:55:55;5.33;;;4.80;;
15331;SDS011;7766;51.534;6.722;2022-07-24T03:56:56;7.30;;;5.43;;
15331;SDS011;7766;51.534;6.722;2022-07-24T03:57:57;7.63;;;5.13;;
15331;SDS011;7766;51.534;6.722;2022-07-24T03:58:58;7.50;;;4.97;;
15331;SDS011;7766;51.534;6.722;2022-07-24T03:59:59;7.47;;;5.10;;
15331;SDS011;7766;51.534;6.722;2022-07-24T04:00:59;7.00;;;4.93;;
15331;SDS011;7766;51.534;6.722;2022-07-24T04:02:00;5.17;;;4.67;;
15331;SDS011;7766;51.534;6.722;2022-07-24T04:03:01;7.20;;;5.13;;
15331;SDS011;7766;51.534;6.722;2022-07-24T04:04:02;9.63;;;5.40;;
15331;SDS011;7766;51.534;6.722;2022-07-24T04:05:04;5.73;;;5.03;;
15331;SDS011;7766;51.534;6.722;2022-07-24T04:06:08;6.60;;;5.03;;
15331;SDS011;7766;51.534;6.722;2022-07-24T04:07:09;6.27;;;4.90;;
15331;SDS011;7766;51.534;6.722;2022-07-24T04:08:09;10.97;;;6.90;;
15331;SDS011;7766;51.534;6.722;2022-07-24T04:09:10;11.50;;;8.70;;
15331;SDS011;7766;51.534;6.722;2022-07-24T04:10:11;10.67;;;7.87;;
15331;SDS011;7766;51.534;6.722;2022-07-24T04:11:12;6.50;;;5.27;;
15331;SDS011;7766;51.534;6.722;2022-07-24T04:12:13;6.20;;;5.57;;
15331;SDS011;7766;51.534;6.722;2022-07-24T04:13:13;7.43;;;5.60;;
15331;SDS011;7766;51.534;6.722;2022-07-24T04:14:14;6.63;;;5.17;;
15331;SDS011;7766;51.534;6.722;2022-07-24T04:15:15;7.23;;;5.77;;
15331;SDS011;7766;51.534;6.722;2022-07-24T04:16:16;5.77;;;4.93;;
15331;SDS011;7766;51.534;6.722;2022-07-24T04:17:17;5.83;;;4.90;;
15331;SDS011;7766;51.534;6.722;2022-07-24T04:18:18;8.70;;;5.27;;
15331;SDS011;7766;51.534;6.722;2022-07-24T04:19:19;5.80;;;4.97;;
15331;SDS011;7766;51.534;6.722;2022-07-24T04:20:19;6.73;;;5.23;;
15331;SDS011;7766;51.534;6.722;2022-07-24T04:21:20;6.67;;;5.07;;
15331;SDS011;7766;51.534;6.722;2022-07-24T04:22:21;7.97;;;5.50;;
15331;SDS011;7766;51.534;6.722;2022-07-24T04:23:22;5.40;;;4.90;;
15331;SDS011;7766;51.534;6.722;2022-07-24T04:24:23;6.57;;;5.60;;
15331;SDS011;7766;51.534;6.722;2022-07-24T04:25:24;10.03;;;5.50;;
15331;SDS011;7766;51.534;6.722;2022-07-24T04:26:25;6.57;;;5.37;;
15331;SDS011;7766;51.534;6.722;2022-07-24T04:27:26;6.70;;;5.33;;
15331;SDS011;7766;51.534;6.722;2022-07-24T04:28:27;6.73;;;5.20;;
15331;SDS011;7766;51.534;6.722;2022-07-24T04:29:28;5.93;;;5.30;;
15331;SDS011;7766;51.534;6.722;2022-07-24T04:30:29;7.67;;;5.37;;
15331;SDS011;7766;51.534;6.722;2022-07-24T04:31:30;6.53;;;5.70;;
15331;SDS011;7766;51.534;6.722;2022-07-24T04:32:31;8.53;;;5.70;;
15331;SDS011;7766;51.534;6.722;2022-07-24T04:33:32;5.70;;;5.20;;
15331;SDS011;7766;51.534;6.722;2022-07-24T04:34:33;6.07;;;5.47;;
15331;SDS011;7766;51.534;6.722;2022-07-24T04:35:34;10.00;;;5.63;;
15331;SDS011;7766;51.534;6.722;2022-07-24T04:36:34;6.80;;;5.90;;
15331;SDS011;7766;51.534;6.722;2022-07-24T04:37:35;10.03;;;5.60;;
15331;SDS011;7766;51.534;6.722;2022-07-24T04:38:36;6.37;;;5.47;;
15331;SDS011;7766;51.534;6.722;2022-07-24T04:39:37;7.73;;;5.50;;
15331;SDS011;7766;51.534;6.722;2022-07-24T04:40:38;8.20;;;5.80;;
15331;SDS011;7766;51.534;6.722;2022-07-24T04:41:39;8.30;;;5.90;;
15331;SDS011;7766;51.534;6.722;2022-07-24T04:42:40;9.57;;;6.23;;
15331;SDS011;7766;51.534;6.722;2022-07-24T04:43:41;6.93;;;5.90;;
15331;SDS011;7766;51.534;6.722;2022-07-24T04:44:42;9.97;;;5.83;;
15331;SDS011;7766;51.534;6.722;2022-07-24T04:45:42;7.67;;;5.70;;
15331;SDS011;7766;51.534;6.722;2022-07-24T04:46:44;11.47;;;6.10;;
15331;SDS011;7766;51.534;6.722;2022-07-24T04:47:44;10.60;;;5.60;;
15331;SDS011;7766;51.534;6.722;2022-07-24T04:48:45;7.77;;;6.07;;
15331;SDS011;7766;51.534;6.722;2022-07-24T04:49:46;10.30;;;6.07;;
15331;SDS011;7766;51.534;6.722;2022-07-24T04:50:47;9.53;;;6.27;;
15331;SDS011;7766;51.534;6.722;2022-07-24T04:51:48;8.63;;;6.63;;
15331;SDS011;7766;51.534;6.722;2022-07-24T04:52:49;7.47;;;5.70;;
15331;SDS011;7766;51.534;6.722;2022-07-24T04:53:50;8.03;;;6.07;;
15331;SDS011;7766;51.534;6.722;2022-07-24T04:54:52;8.53;;;6.40;;
15331;SDS011;7766;51.534;6.722;2022-07-24T04:55:53;10.13;;;6.43;;
15331;SDS011;7766;51.534;6.722;2022-07-24T04:56:54;10.40;;;6.27;;
15331;SDS011;7766;51.534;6.722;2022-07-24T04:57:55;8.57;;;5.80;;
15331;SDS011;7766;51.534;6.722;2022-07-24T04:58:56;7.40;;;5.93;;
15331;SDS011;7766;51.534;6.722;2022-07-24T04:59:57;8.07;;;5.63;;
15331;SDS011;7766;51.534;6.722;2022-07-24T05:00:58;8.90;;;6.17;;
15331;SDS011;7766;51.534;6.722;2022-07-24T05:01:59;6.40;;;5.63;;
15331;SDS011;7766;51.534;6.722;2022-07-24T05:03:00;6.27;;;5.67;;
15331;SDS011;7766;51.534;6.722;2022-07-24T05:04:01;8.63;;;5.80;;
15331;SDS011;7766;51.534;6.722;2022-07-24T05:05:02;8.60;;;6.63;;
15331;SDS011;7766;51.534;6.722;2022-07-24T05:06:03;10.00;;;5.90;;
15331;SDS011;7766;51.534;6.722;2022-07-24T05:07:04;6.93;;;6.23;;
15331;SDS011;7766;51.534;6.722;2022-07-24T05:08:05;6.67;;;6.00;;
15331;SDS011;7766;51.534;6.722;2022-07-24T05:09:06;7.47;;;6.27;;
15331;SDS011;7766;51.534;6.722;2022-07-24T05:10:07;7.97;;;6.43;;
15331;SDS011;7766;51.534;6.722;2022-07-24T05:11:08;8.93;;;6.37;;
15331;SDS011;7766;51.534;6.722;2022-07-24T05:12:09;8.70;;;6.10;;
15331;SDS011;7766;51.534;6.722;2022-07-24T05:13:10;7.17;;;6.33;;
15331;SDS011;7766;51.534;6.722;2022-07-24T05:14:10;8.30;;;6.33;;
15331;SDS011;7766;51.534;6.722;2022-07-24T05:15:11;7.10;;;6.40;;
15331;SDS011;7766;51.534;6.722;2022-07-24T05:16:12;8.90;;;6.83;;
15331;SDS011;7766;51.534;6.722;2022-07-24T05:17:13;11.60;;;6.50;;
15331;SDS011;7766;51.534;6.722;2022-07-24T05:18:15;7.90;;;6.57;;
15331;SDS011;7766;51.534;6.722;2022-07-24T05:19:15;6.93;;;6.03;;
15331;SDS011;7766;51.534;6.722;2022-07-24T05:20:16;11.60;;;6.43;;
15331;SDS011;7766;51.534;6.722;2022-07-24T05:21:17;9.83;;;6.37;;
15331;SDS011;7766;51.534;6.722;2022-07-24T05:22:18;10.20;;;6.57;;
15331;SDS011;7766;51.534;6.722;2022-07-24T05:23:19;6.70;;;5.70;;
15331;SDS011;7766;51.534;6.722;2022-07-24T05:24:20;7.43;;;6.03;;
15331;SDS011;7766;51.534;6.722;2022-07-24T05:25:21;7.73;;;6.00;;
15331;SDS011;7766;51.534;6.722;2022-07-24T05:26:22;9.27;;;6.27;;
15331;SDS011;7766;51.534;6.722;2022-07-24T05:27:23;5.80;;;5.27;;
15331;SDS011;7766;51.534;6.722;2022-07-24T05:28:24;6.57;;;5.37;;
15331;SDS011;7766;51.534;6.722;2022-07-24T05:29:25;6.27;;;5.57;;
15331;SDS011;7766;51.534;6.722;2022-07-24T05:30:26;6.70;;;6.00;;
15331;SDS011;7766;51.534;6.722;2022-07-24T05:31:27;8.23;;;6.60;;
15331;SDS011;7766;51.534;6.722;2022-07-24T05:32:28;8.00;;;7.13;;
15331;SDS011;7766;51.534;6.722;2022-07-24T05:33:29;12.30;;;6.93;;
15331;SDS011;7766;51.534;6.722;2022-07-24T05:34:29;7.27;;;6.27;;
15331;SDS011;7766;51.534;6.722;2022-07-24T05:35:31;8.00;;;6.50;;
15331;SDS011;7766;51.534;6.722;2022-07-24T05:36:32;13.17;;;6.87;;
15331;SDS011;7766;51.534;6.722;2022-07-24T05:37:33;10.20;;;7.17;;
15331;SDS011;7766;51.534;6.722;2022-07-24T05:38:34;11.17;;;7.40;;
15331;SDS011;7766;51.534;6.722;2022-07-24T05:39:35;8.50;;;6.60;;
15331;SDS011;7766;51.534;6.722;2022-07-24T05:40:36;9.07;;;6.80;;
15331;SDS011;7766;51.534;6.722;2022-07-24T05:41:37;12.13;;;7.70;;
15331;SDS011;7766;51.534;6.722;2022-07-24T05:42:38;8.73;;;7.23;;
15331;SDS011;7766;51.534;6.722;2022-07-24T05:43:39;10.27;;;7.13;;
15331;SDS011;7766;51.534;6.722;2022-07-24T05:44:40;8.30;;;6.73;;
15331;SDS011;7766;51.534;6.722;2022-07-24T05:45:41;9.07;;;6.63;;
15331;SDS011;7766;51.534;6.722;2022-07-24T05:46:42;8.20;;;6.40;;
15331;SDS011;7766;51.534;6.722;2022-07-24T05:47:43;9.83;;;6.80;;
15331;SDS011;7766;51.534;6.722;2022-07-24T05:48:43;8.97;;;7.30;;
15331;SDS011;7766;51.534;6.722;2022-07-24T05:49:44;9.63;;;6.77;;
15331;SDS011;7766;51.534;6.722;2022-07-24T05:50:45;10.02;;;7.00;;
15331;SDS011;7766;51.534;6.722;2022-07-24T05:51:46;9.23;;;7.03;;
15331;SDS011;7766;51.534;6.722;2022-07-24T05:52:47;11.50;;;7.97;;
15331;SDS011;7766;51.534;6.722;2022-07-24T05:53:48;10.10;;;8.05;;
15331;SDS011;7766;51.534;6.722;2022-07-24T05:54:49;13.88;;;8.68;;
15331;SDS011;7766;51.534;6.722;2022-07-24T05:55:50;15.20;;;8.17;;
15331;SDS011;7766;51.534;6.722;2022-07-24T05:56:51;11.60;;;8.23;;
15331;SDS011;7766;51.534;6.722;2022-07-24T05:57:52;11.83;;;8.07;;
15331;SDS011;7766;51.534;6.722;2022-07-24T05:58:53;11.05;;;7.63;;
15331;SDS011;7766;51.534;6.722;2022-07-24T05:59:54;12.38;;;7.43;;
15331;SDS011;7766;51.534;6.722;2022-07-24T06:00:55;11.93;;;7.05;;
15331;SDS011;7766;51.534;6.722;2022-07-24T06:01:56;11.48;;;7.72;;
15331;SDS011;7766;51.534;6.722;2022-07-24T06:02:57;9.70;;;6.85;;
15331;SDS011;7766;51.534;6.722;2022-07-24T06:03:58;10.80;;;7.15;;
15331;SDS011;7766;51.534;6.722;2022-07-24T06:04:59;10.90;;;7.10;;
15331;SDS011;7766;51.534;6.722;2022-07-24T06:06:00;12.95;;;7.70;;
15331;SDS011;7766;51.534;6.722;2022-07-24T06:07:01;16.58;;;8.35;;
15331;SDS011;7766;51.534;6.722;2022-07-24T06:08:02;17.38;;;7.35;;
15331;SDS011;7766;51.534;6.722;2022-07-24T06:09:03;18.30;;;7.30;;
15331;SDS011;7766;51.534;6.722;2022-07-24T06:10:04;17.02;;;7.55;;
15331;SDS011;7766;51.534;6.722;2022-07-24T06:11:05;17.23;;;8.43;;
15331;SDS011;7766;51.534;6.722;2022-07-24T06:12:06;15.00;;;8.18;;
15331;SDS011;7766;51.534;6.722;2022-07-24T06:13:07;17.88;;;8.25;;